sensor_id;sensor_type;location;lat;lon;timestamp;pressure;altitude;pressure_sealevel;temperature;humidity
74542;BME280;63015;45.378;20.360;2023-09-19T00:00:27;100540.69;;;21.85;49.19
74542;BME280;63015;45.378;20.360;2023-09-19T00:02:28;100542.56;;;21.83;49.28
74542;BME280;63015;45.378;20.360;2023-09-19T00:04:31;100550.72;;;21.79;49.45
74542;BME280;63015;45.378;20.360;2023-09-19T00:06:32;100549.53;;;21.86;49.42
74542;BME280;63015;45.378;20.360;2023-09-19T00:08:36;100552.03;;;21.89;49.41
74542;BME280;63015;45.378;20.360;2023-09-19T00:10:36;100546.22;;;21.81;49.46
74542;BME280;63015;45.378;20.360;2023-09-19T00:12:37;100543.22;;;21.89;49.27
74542;BME280;63015;45.378;20.360;2023-09-19T00:14:42;100553.56;;;21.95;49.36
74542;BME280;63015;45.378;20.360;2023-09-19T00:16:43;100552.91;;;21.90;49.49
74542;BME280;63015;45.378;20.360;2023-09-19T00:18:45;100551.31;;;21.85;49.61
74542;BME280;63015;45.378;20.360;2023-09-19T00:20:46;100537.53;;;21.77;49.73
74542;BME280;63015;45.378;20.360;2023-09-19T00:22:50;100523.28;;;21.80;49.85
74542;BME280;63015;45.378;20.360;2023-09-19T00:24:54;100518.25;;;21.74;49.68
74542;BME280;63015;45.378;20.360;2023-09-19T00:26:55;100509.38;;;21.75;49.75
74542;BME280;63015;45.378;20.360;2023-09-19T00:28:56;100504.16;;;21.92;49.55
74542;BME280;63015;45.378;20.360;2023-09-19T00:30:57;100504.50;;;21.84;49.62
74542;BME280;63015;45.378;20.360;2023-09-19T00:33:01;100502.06;;;21.80;49.83
74542;BME280;63015;45.378;20.360;2023-09-19T00:35:06;100481.00;;;21.77;49.60
74542;BME280;63015;45.378;20.360;2023-09-19T00:37:08;100494.63;;;21.69;49.62
74542;BME280;63015;45.378;20.360;2023-09-19T00:39:12;100490.53;;;21.81;49.47
74542;BME280;63015;45.378;20.360;2023-09-19T00:41:12;100478.56;;;21.72;49.31
74542;BME280;63015;45.378;20.360;2023-09-19T00:43:13;100471.31;;;21.76;49.37
74542;BME280;63015;45.378;20.360;2023-09-19T00:45:15;100466.28;;;21.70;49.50
74542;BME280;63015;45.378;20.360;2023-09-19T00:47:17;100465.94;;;21.77;49.25
74542;BME280;63015;45.378;20.360;2023-09-19T00:49:19;100471.31;;;21.76;49.50
74542;BME280;63015;45.378;20.360;2023-09-19T00:51:22;100465.22;;;21.74;49.51
74542;BME280;63015;45.378;20.360;2023-09-19T00:53:25;100468.22;;;21.66;49.70
74542;BME280;63015;45.378;20.360;2023-09-19T00:55:29;100465.09;;;21.77;49.17
74542;BME280;63015;45.378;20.360;2023-09-19T00:57:30;100456.25;;;21.76;49.29
74542;BME280;63015;45.378;20.360;2023-09-19T00:59:32;100460.78;;;21.74;49.50
74542;BME280;63015;45.378;20.360;2023-09-19T01:01:33;100464.66;;;21.67;49.64
74542;BME280;63015;45.378;20.360;2023-09-19T01:03:37;100459.06;;;21.73;49.37
74542;BME280;63015;45.378;20.360;2023-09-19T01:05:38;100452.59;;;21.79;49.19
74542;BME280;63015;45.378;20.360;2023-09-19T01:07:39;100453.84;;;21.72;49.50
74542;BME280;63015;45.378;20.360;2023-09-19T01:09:44;100452.31;;;21.66;49.85
74542;BME280;63015;45.378;20.360;2023-09-19T01:11:47;100470.75;;;21.69;49.99
74542;BME280;63015;45.378;20.360;2023-09-19T01:14:38;100453.13;;;21.68;49.84
74542;BME280;63015;45.378;20.360;2023-09-19T01:16:53;100460.63;;;21.58;49.78
74542;BME280;63015;45.378;20.360;2023-09-19T01:19:12;100460.81;;;21.54;50.11
74542;BME280;63015;45.378;20.360;2023-09-19T01:21:26;100462.28;;;21.61;49.84
74542;BME280;63015;45.378;20.360;2023-09-19T01:28:29;100456.03;;;21.62;50.17
74542;BME280;63015;45.378;20.360;2023-09-19T01:30:33;100451.94;;;21.55;50.04
74542;BME280;63015;45.378;20.360;2023-09-19T01:32:37;100452.75;;;21.57;50.15
74542;BME280;63015;45.378;20.360;2023-09-19T01:36:49;100443.78;;;21.59;49.90
74542;BME280;63015;45.378;20.360;2023-09-19T01:38:51;100449.50;;;21.50;50.02
74542;BME280;63015;45.378;20.360;2023-09-19T01:41:06;100446.53;;;21.58;49.84
74542;BME280;63015;45.378;20.360;2023-09-19T01:43:23;100455.25;;;21.60;49.75
74542;BME280;63015;45.378;20.360;2023-09-19T01:47:59;100462.91;;;21.66;49.59
74542;BME280;63015;45.378;20.360;2023-09-19T01:50:29;100456.53;;;21.70;49.52
74542;BME280;63015;45.378;20.360;2023-09-19T01:52:38;100456.25;;;21.57;50.11
74542;BME280;63015;45.378;20.360;2023-09-19T01:54:51;100460.19;;;21.67;50.07
74542;BME280;63015;45.378;20.360;2023-09-19T01:56:57;100461.16;;;21.66;50.13
74542;BME280;63015;45.378;20.360;2023-09-19T01:59:13;100453.19;;;21.66;49.93
74542;BME280;63015;45.378;20.360;2023-09-19T02:01:20;100465.72;;;21.63;49.79
74542;BME280;63015;45.378;20.360;2023-09-19T02:03:23;100457.97;;;21.58;49.59
74542;BME280;63015;45.378;20.360;2023-09-19T02:05:25;100450.94;;;21.57;49.52
74542;BME280;63015;45.378;20.360;2023-09-19T02:07:25;100445.59;;;21.59;49.51
74542;BME280;63015;45.378;20.360;2023-09-19T02:09:27;100438.50;;;21.59;49.46
74542;BME280;63015;45.378;20.360;2023-09-19T02:11:28;100450.25;;;21.52;49.48
74542;BME280;63015;45.378;20.360;2023-09-19T02:13:29;100449.75;;;21.64;49.50
74542;BME280;63015;45.378;20.360;2023-09-19T02:15:31;100451.66;;;21.61;49.52
74542;BME280;63015;45.378;20.360;2023-09-19T02:17:34;100460.16;;;21.69;49.29
74542;BME280;63015;45.378;20.360;2023-09-19T02:19:35;100464.94;;;21.61;49.66
74542;BME280;63015;45.378;20.360;2023-09-19T02:21:37;100456.69;;;21.67;49.44
74542;BME280;63015;45.378;20.360;2023-09-19T02:23:40;100447.16;;;21.63;49.74
74542;BME280;63015;45.378;20.360;2023-09-19T02:25:41;100449.00;;;21.61;49.74
74542;BME280;63015;45.378;20.360;2023-09-19T02:27:45;100450.59;;;21.65;50.08
74542;BME280;63015;45.378;20.360;2023-09-19T02:29:45;100449.41;;;21.51;50.59
74542;BME280;63015;45.378;20.360;2023-09-19T02:31:46;100444.97;;;21.52;50.30
74542;BME280;63015;45.378;20.360;2023-09-19T02:33:48;100453.28;;;21.44;50.86
74542;BME280;63015;45.378;20.360;2023-09-19T02:35:49;100447.53;;;21.34;50.93
74542;BME280;63015;45.378;20.360;2023-09-19T02:37:50;100446.47;;;21.39;50.99
74542;BME280;63015;45.378;20.360;2023-09-19T02:39:52;100449.53;;;21.29;51.11
74542;BME280;63015;45.378;20.360;2023-09-19T02:41:53;100451.13;;;21.33;51.65
74542;BME280;63015;45.378;20.360;2023-09-19T02:43:54;100447.09;;;21.25;51.94
74542;BME280;63015;45.378;20.360;2023-09-19T02:45:54;100449.75;;;21.25;52.30
74542;BME280;63015;45.378;20.360;2023-09-19T02:47:55;100449.25;;;21.16;52.13
74542;BME280;63015;45.378;20.360;2023-09-19T02:49:56;100437.00;;;21.14;52.33
74542;BME280;63015;45.378;20.360;2023-09-19T02:51:57;100439.75;;;21.11;52.38
74542;BME280;63015;45.378;20.360;2023-09-19T02:53:59;100427.44;;;21.10;52.19
74542;BME280;63015;45.378;20.360;2023-09-19T02:56:00;100427.50;;;21.08;52.32
74542;BME280;63015;45.378;20.360;2023-09-19T02:58:01;100405.59;;;21.05;52.76
74542;BME280;63015;45.378;20.360;2023-09-19T03:00:03;100402.59;;;20.93;53.27
74542;BME280;63015;45.378;20.360;2023-09-19T03:02:05;100408.00;;;20.90;53.19
74542;BME280;63015;45.378;20.360;2023-09-19T03:04:06;100395.75;;;20.88;53.31
74542;BME280;63015;45.378;20.360;2023-09-19T03:06:07;100389.06;;;20.79;53.84
74542;BME280;63015;45.378;20.360;2023-09-19T03:08:09;100371.47;;;20.78;54.06
74542;BME280;63015;45.378;20.360;2023-09-19T03:10:10;100366.38;;;20.73;54.00
74542;BME280;63015;45.378;20.360;2023-09-19T03:12:11;100365.75;;;20.66;54.35
74542;BME280;63015;45.378;20.360;2023-09-19T03:14:12;100365.09;;;20.61;53.98
74542;BME280;63015;45.378;20.360;2023-09-19T03:16:13;100357.22;;;20.60;53.94
74542;BME280;63015;45.378;20.360;2023-09-19T03:18:15;100354.25;;;20.67;53.68
74542;BME280;63015;45.378;20.360;2023-09-19T03:20:17;100354.25;;;20.67;53.70
74542;BME280;63015;45.378;20.360;2023-09-19T03:22:17;100356.44;;;20.58;53.68
74542;BME280;63015;45.378;20.360;2023-09-19T03:24:19;100369.31;;;20.65;53.85
74542;BME280;63015;45.378;20.360;2023-09-19T03:26:20;100362.47;;;20.61;53.64
74542;BME280;63015;45.378;20.360;2023-09-19T03:28:22;100365.69;;;20.68;53.73
74542;BME280;63015;45.378;20.360;2023-09-19T03:30:24;100362.38;;;20.63;54.02
74542;BME280;63015;45.378;20.360;2023-09-19T03:32:25;100375.09;;;20.54;54.12
74542;BME280;63015;45.378;20.360;2023-09-19T03:34:26;100379.06;;;20.65;54.16
74542;BME280;63015;45.378;20.360;2023-09-19T03:36:29;100370.41;;;20.61;54.10
74542;BME280;63015;45.378;20.360;2023-09-19T03:38:30;100380.25;;;20.58;54.04
74542;BME280;63015;45.378;20.360;2023-09-19T03:40:32;100394.41;;;20.57;53.87
74542;BME280;63015;45.378;20.360;2023-09-19T03:42:33;100389.13;;;20.57;53.72
74542;BME280;63015;45.378;20.360;2023-09-19T03:44:36;100387.59;;;20.51;53.84
74542;BME280;63015;45.378;20.360;2023-09-19T03:46:37;100380.19;;;20.59;53.67
74542;BME280;63015;45.378;20.360;2023-09-19T03:48:39;100389.03;;;20.58;53.47
74542;BME280;63015;45.378;20.360;2023-09-19T03:50:39;100375.63;;;20.63;53.29
74542;BME280;63015;45.378;20.360;2023-09-19T03:52:40;100387.38;;;20.78;53.03
74542;BME280;63015;45.378;20.360;2023-09-19T03:54:41;100386.78;;;20.69;53.38
74542;BME280;63015;45.378;20.360;2023-09-19T03:56:43;100383.63;;;20.61;53.22
74542;BME280;63015;45.378;20.360;2023-09-19T03:58:44;100395.72;;;20.67;53.02
74542;BME280;63015;45.378;20.360;2023-09-19T04:00:45;100400.09;;;20.68;52.87
74542;BME280;63015;45.378;20.360;2023-09-19T04:02:45;100414.78;;;20.77;52.69
74542;BME280;63015;45.378;20.360;2023-09-19T04:04:46;100414.69;;;20.78;52.81
74542;BME280;63015;45.378;20.360;2023-09-19T04:06:47;100430.50;;;20.80;53.38
74542;BME280;63015;45.378;20.360;2023-09-19T04:08:48;100429.50;;;20.82;52.93
74542;BME280;63015;45.378;20.360;2023-09-19T04:10:49;100428.84;;;20.77;52.83
74542;BME280;63015;45.378;20.360;2023-09-19T04:12:52;100419.63;;;20.65;54.39
74542;BME280;63015;45.378;20.360;2023-09-19T04:14:53;100406.78;;;20.56;55.38
74542;BME280;63015;45.378;20.360;2023-09-19T04:16:54;100401.56;;;20.34;56.52
74542;BME280;63015;45.378;20.360;2023-09-19T04:18:55;100412.00;;;20.37;56.67
74542;BME280;63015;45.378;20.360;2023-09-19T04:20:55;100409.81;;;20.26;56.91
74542;BME280;63015;45.378;20.360;2023-09-19T04:22:56;100414.06;;;20.08;58.10
74542;BME280;63015;45.378;20.360;2023-09-19T04:24:57;100424.53;;;20.11;58.11
74542;BME280;63015;45.378;20.360;2023-09-19T04:26:57;100423.31;;;19.98;59.05
74542;BME280;63015;45.378;20.360;2023-09-19T04:28:59;100425.06;;;19.97;58.71
74542;BME280;63015;45.378;20.360;2023-09-19T04:31:01;100430.25;;;20.00;58.38
74542;BME280;63015;45.378;20.360;2023-09-19T04:33:02;100430.56;;;19.93;58.71
74542;BME280;63015;45.378;20.360;2023-09-19T04:35:03;100437.22;;;20.03;58.04
74542;BME280;63015;45.378;20.360;2023-09-19T04:37:06;100443.47;;;20.00;57.86
74542;BME280;63015;45.378;20.360;2023-09-19T04:39:07;100438.19;;;20.00;57.85
74542;BME280;63015;45.378;20.360;2023-09-19T04:41:08;100453.00;;;20.04;57.88
74542;BME280;63015;45.378;20.360;2023-09-19T04:43:08;100443.19;;;20.08;57.55
74542;BME280;63015;45.378;20.360;2023-09-19T04:45:10;100449.25;;;20.10;57.14
74542;BME280;63015;45.378;20.360;2023-09-19T04:47:11;100452.56;;;20.15;57.19
74542;BME280;63015;45.378;20.360;2023-09-19T04:49:13;100446.28;;;20.18;56.83
74542;BME280;63015;45.378;20.360;2023-09-19T04:51:13;100460.19;;;20.23;56.41
74542;BME280;63015;45.378;20.360;2023-09-19T04:53:15;100455.22;;;20.15;56.58
74542;BME280;63015;45.378;20.360;2023-09-19T04:55:17;100447.94;;;20.20;56.56
74542;BME280;63015;45.378;20.360;2023-09-19T04:57:18;100450.72;;;20.17;56.38
74542;BME280;63015;45.378;20.360;2023-09-19T04:59:18;100446.66;;;20.31;56.12
74542;BME280;63015;45.378;20.360;2023-09-19T05:01:19;100444.00;;;20.31;56.13
74542;BME280;63015;45.378;20.360;2023-09-19T05:03:23;100444.81;;;20.33;55.80
74542;BME280;63015;45.378;20.360;2023-09-19T05:05:24;100446.97;;;20.23;55.58
74542;BME280;63015;45.378;20.360;2023-09-19T05:07:25;100455.16;;;20.39;55.44
74542;BME280;63015;45.378;20.360;2023-09-19T05:09:26;100456.06;;;20.38;55.22
74542;BME280;63015;45.378;20.360;2023-09-19T05:11:27;100448.44;;;20.30;55.51
74542;BME280;63015;45.378;20.360;2023-09-19T05:13:30;100452.81;;;20.31;55.64
74542;BME280;63015;45.378;20.360;2023-09-19T05:15:31;100455.00;;;20.42;55.23
74542;BME280;63015;45.378;20.360;2023-09-19T05:17:32;100457.59;;;20.44;55.25
74542;BME280;63015;45.378;20.360;2023-09-19T05:19:33;100460.44;;;20.39;55.50
74542;BME280;63015;45.378;20.360;2023-09-19T05:21:35;100459.47;;;20.42;55.33
74542;BME280;63015;45.378;20.360;2023-09-19T05:23:36;100458.31;;;20.47;55.22
74542;BME280;63015;45.378;20.360;2023-09-19T05:25:38;100464.47;;;20.48;54.82
74542;BME280;63015;45.378;20.360;2023-09-19T05:27:39;100467.59;;;20.58;54.76
74542;BME280;63015;45.378;20.360;2023-09-19T05:29:40;100473.72;;;20.60;54.66
74542;BME280;63015;45.378;20.360;2023-09-19T05:31:42;100469.50;;;20.76;54.30
74542;BME280;63015;45.378;20.360;2023-09-19T05:33:43;100471.88;;;20.82;54.00
74542;BME280;63015;45.378;20.360;2023-09-19T05:35:44;100477.06;;;20.85;53.97
74542;BME280;63015;45.378;20.360;2023-09-19T05:37:48;100470.81;;;20.86;53.81
74542;BME280;63015;45.378;20.360;2023-09-19T05:39:51;100474.88;;;20.95;53.89
74542;BME280;63015;45.378;20.360;2023-09-19T05:41:51;100472.03;;;21.00;53.44
74542;BME280;63015;45.378;20.360;2023-09-19T05:43:52;100477.09;;;21.05;53.27
74542;BME280;63015;45.378;20.360;2023-09-19T05:45:52;100484.06;;;21.07;53.44
74542;BME280;63015;45.378;20.360;2023-09-19T05:47:53;100478.50;;;21.13;53.20
74542;BME280;63015;45.378;20.360;2023-09-19T05:50:04;100465.97;;;21.17;52.73
74542;BME280;63015;45.378;20.360;2023-09-19T05:52:05;100466.38;;;21.28;52.73
74542;BME280;63015;45.378;20.360;2023-09-19T05:54:06;100468.81;;;21.33;52.13
74542;BME280;63015;45.378;20.360;2023-09-19T05:56:07;100469.19;;;21.44;52.02
74542;BME280;63015;45.378;20.360;2023-09-19T05:58:09;100477.09;;;21.46;51.68
74542;BME280;63015;45.378;20.360;2023-09-19T06:00:10;100470.19;;;21.42;51.56
74542;BME280;63015;45.378;20.360;2023-09-19T06:02:14;100472.59;;;21.67;51.12
74542;BME280;63015;45.378;20.360;2023-09-19T06:04:15;100475.91;;;21.72;50.43
74542;BME280;63015;45.378;20.360;2023-09-19T06:06:16;100466.78;;;21.78;50.34
74542;BME280;63015;45.378;20.360;2023-09-19T06:08:16;100466.50;;;21.84;50.48
74542;BME280;63015;45.378;20.360;2023-09-19T06:10:18;100469.88;;;21.88;50.46
74542;BME280;63015;45.378;20.360;2023-09-19T06:12:18;100476.19;;;21.85;50.49
74542;BME280;63015;45.378;20.360;2023-09-19T06:14:19;100476.25;;;22.03;49.82
74542;BME280;63015;45.378;20.360;2023-09-19T06:16:20;100467.47;;;22.20;50.17
74542;BME280;63015;45.378;20.360;2023-09-19T06:18:20;100453.66;;;22.30;49.17
74542;BME280;63015;45.378;20.360;2023-09-19T06:20:22;100452.16;;;22.44;49.19
74542;BME280;63015;45.378;20.360;2023-09-19T06:22:23;100451.28;;;22.43;48.90
74542;BME280;63015;45.378;20.360;2023-09-19T06:24:24;100444.97;;;22.63;48.40
74542;BME280;63015;45.378;20.360;2023-09-19T06:26:25;100446.84;;;22.79;48.11
74542;BME280;63015;45.378;20.360;2023-09-19T06:28:27;100450.84;;;22.88;47.86
74542;BME280;63015;45.378;20.360;2023-09-19T06:30:28;100444.72;;;23.03;48.08
74542;BME280;63015;45.378;20.360;2023-09-19T06:32:29;100430.94;;;22.95;47.49
74542;BME280;63015;45.378;20.360;2023-09-19T06:34:30;100443.34;;;23.12;47.52
74542;BME280;63015;45.378;20.360;2023-09-19T06:36:30;100452.75;;;23.19;47.17
74542;BME280;63015;45.378;20.360;2023-09-19T06:38:31;100453.66;;;23.36;47.04
74542;BME280;63015;45.378;20.360;2023-09-19T06:40:34;100456.84;;;23.42;46.80
74542;BME280;63015;45.378;20.360;2023-09-19T06:42:35;100441.06;;;23.39;46.29
74542;BME280;63015;45.378;20.360;2023-09-19T06:44:37;100451.50;;;23.42;46.10
74542;BME280;63015;45.378;20.360;2023-09-19T06:46:38;100449.91;;;23.72;46.26
74542;BME280;63015;45.378;20.360;2023-09-19T06:48:39;100455.31;;;23.86;45.94
74542;BME280;63015;45.378;20.360;2023-09-19T06:50:40;100452.66;;;23.70;46.31
74542;BME280;63015;45.378;20.360;2023-09-19T06:52:41;100453.34;;;23.58;45.74
74542;BME280;63015;45.378;20.360;2023-09-19T06:54:42;100453.53;;;23.87;45.67
74542;BME280;63015;45.378;20.360;2023-09-19T06:56:43;100458.25;;;24.13;45.50
74542;BME280;63015;45.378;20.360;2023-09-19T06:58:43;100451.13;;;24.14;45.58
74542;BME280;63015;45.378;20.360;2023-09-19T07:00:44;100452.84;;;24.15;44.85
74542;BME280;63015;45.378;20.360;2023-09-19T07:02:54;100466.41;;;24.10;45.26
74542;BME280;63015;45.378;20.360;2023-09-19T07:04:54;100461.63;;;24.01;44.95
74542;BME280;63015;45.378;20.360;2023-09-19T07:06:55;100466.50;;;23.93;45.73
74542;BME280;63015;45.378;20.360;2023-09-19T07:08:56;100471.75;;;24.10;45.45
74542;BME280;63015;45.378;20.360;2023-09-19T07:10:56;100464.63;;;23.95;45.68
74542;BME280;63015;45.378;20.360;2023-09-19T07:13:02;100460.63;;;23.86;45.72
74542;BME280;63015;45.378;20.360;2023-09-19T07:15:03;100466.25;;;23.97;45.68
74542;BME280;63015;45.378;20.360;2023-09-19T07:17:06;100473.34;;;24.29;45.26
74542;BME280;63015;45.378;20.360;2023-09-19T07:19:07;100468.59;;;24.34;45.54
74542;BME280;63015;45.378;20.360;2023-09-19T07:21:07;100453.53;;;24.49;44.71
74542;BME280;63015;45.378;20.360;2023-09-19T07:23:08;100466.56;;;24.70;44.72
74542;BME280;63015;45.378;20.360;2023-09-19T07:25:09;100464.72;;;24.86;44.02
74542;BME280;63015;45.378;20.360;2023-09-19T07:27:10;100466.72;;;24.97;43.88
74542;BME280;63015;45.378;20.360;2023-09-19T07:29:11;100474.38;;;24.73;43.66
74542;BME280;63015;45.378;20.360;2023-09-19T07:31:11;100462.22;;;24.83;44.08
74542;BME280;63015;45.378;20.360;2023-09-19T07:33:14;100456.72;;;24.86;43.83
74542;BME280;63015;45.378;20.360;2023-09-19T07:35:15;100462.16;;;24.99;43.73
74542;BME280;63015;45.378;20.360;2023-09-19T07:37:15;100458.22;;;25.35;43.36
74542;BME280;63015;45.378;20.360;2023-09-19T07:39:16;100468.25;;;25.73;42.53
74542;BME280;63015;45.378;20.360;2023-09-19T07:41:17;100459.38;;;25.87;42.15
74542;BME280;63015;45.378;20.360;2023-09-19T07:43:18;100462.00;;;26.16;41.71
74542;BME280;63015;45.378;20.360;2023-09-19T07:45:19;100471.00;;;26.28;41.19
74542;BME280;63015;45.378;20.360;2023-09-19T07:47:20;100463.44;;;26.35;40.59
74542;BME280;63015;45.378;20.360;2023-09-19T07:49:24;100463.09;;;26.67;40.87
74542;BME280;63015;45.378;20.360;2023-09-19T07:51:24;100467.94;;;26.87;40.02
74542;BME280;63015;45.378;20.360;2023-09-19T07:53:25;100473.41;;;26.73;40.04
74542;BME280;63015;45.378;20.360;2023-09-19T07:55:26;100472.00;;;26.93;40.06
74542;BME280;63015;45.378;20.360;2023-09-19T07:57:27;100478.66;;;27.13;39.81
74542;BME280;63015;45.378;20.360;2023-09-19T07:59:29;100482.63;;;27.33;39.50
74542;BME280;63015;45.378;20.360;2023-09-19T08:01:30;100482.28;;;27.25;39.21
74542;BME280;63015;45.378;20.360;2023-09-19T08:03:30;100480.69;;;27.22;39.24
74542;BME280;63015;45.378;20.360;2023-09-19T08:05:31;100477.97;;;27.74;38.60
74542;BME280;63015;45.378;20.360;2023-09-19T08:07:33;100474.00;;;27.80;38.83
74542;BME280;63015;45.378;20.360;2023-09-19T08:09:36;100477.75;;;27.77;38.69
74542;BME280;63015;45.378;20.360;2023-09-19T08:11:38;100479.06;;;28.09;38.65
74542;BME280;63015;45.378;20.360;2023-09-19T08:13:39;100477.09;;;28.35;37.99
74542;BME280;63015;45.378;20.360;2023-09-19T08:15:49;100473.75;;;28.44;37.69
74542;BME280;63015;45.378;20.360;2023-09-19T08:17:51;100478.81;;;28.12;37.83
74542;BME280;63015;45.378;20.360;2023-09-19T08:19:52;100480.91;;;27.95;38.44
74542;BME280;63015;45.378;20.360;2023-09-19T08:21:53;100480.38;;;27.53;38.89
74542;BME280;63015;45.378;20.360;2023-09-19T08:23:54;100481.72;;;27.71;38.88
74542;BME280;63015;45.378;20.360;2023-09-19T08:25:58;100475.13;;;27.51;38.98
74542;BME280;63015;45.378;20.360;2023-09-19T08:28:03;100474.06;;;27.54;39.90
74542;BME280;63015;45.378;20.360;2023-09-19T08:30:08;100475.31;;;27.35;39.56
74542;BME280;63015;45.378;20.360;2023-09-19T08:32:11;100472.09;;;27.56;39.59
74542;BME280;63015;45.378;20.360;2023-09-19T08:34:11;100472.63;;;27.61;39.66
74542;BME280;63015;45.378;20.360;2023-09-19T08:36:12;100475.56;;;27.95;39.32
74542;BME280;63015;45.378;20.360;2023-09-19T08:38:14;100461.38;;;28.30;38.99
74542;BME280;63015;45.378;20.360;2023-09-19T08:40:15;100467.09;;;28.26;38.73
74542;BME280;63015;45.378;20.360;2023-09-19T08:42:16;100479.75;;;28.24;38.34
74542;BME280;63015;45.378;20.360;2023-09-19T08:44:18;100471.41;;;28.39;38.40
74542;BME280;63015;45.378;20.360;2023-09-19T08:46:20;100474.03;;;28.04;38.91
74542;BME280;63015;45.378;20.360;2023-09-19T08:48:26;100471.72;;;28.24;38.58
74542;BME280;63015;45.378;20.360;2023-09-19T08:50:29;100463.50;;;28.38;38.52
74542;BME280;63015;45.378;20.360;2023-09-19T08:52:32;100470.56;;;28.39;38.85
74542;BME280;63015;45.378;20.360;2023-09-19T08:54:38;100467.81;;;28.52;38.65
74542;BME280;63015;45.378;20.360;2023-09-19T08:56:41;100470.56;;;28.75;38.10
74542;BME280;63015;45.378;20.360;2023-09-19T08:58:47;100467.78;;;28.76;37.54
74542;BME280;63015;45.378;20.360;2023-09-19T09:00:50;100465.41;;;29.07;37.45
74542;BME280;63015;45.378;20.360;2023-09-19T09:02:54;100459.94;;;29.43;37.38
74542;BME280;63015;45.378;20.360;2023-09-19T09:04:55;100463.09;;;29.25;37.05
74542;BME280;63015;45.378;20.360;2023-09-19T09:06:57;100462.00;;;29.73;36.16
74542;BME280;63015;45.378;20.360;2023-09-19T09:08:58;100459.94;;;29.31;36.76
74542;BME280;63015;45.378;20.360;2023-09-19T09:10:59;100455.59;;;29.30;36.88
74542;BME280;63015;45.378;20.360;2023-09-19T09:13:00;100454.09;;;29.60;36.87
74542;BME280;63015;45.378;20.360;2023-09-19T09:15:04;100457.47;;;29.74;36.20
74542;BME280;63015;45.378;20.360;2023-09-19T09:17:05;100457.44;;;30.08;36.51
74542;BME280;63015;45.378;20.360;2023-09-19T09:19:06;100461.31;;;30.04;35.91
74542;BME280;63015;45.378;20.360;2023-09-19T09:21:06;100471.22;;;30.03;35.83
74542;BME280;63015;45.378;20.360;2023-09-19T09:23:07;100477.59;;;29.91;36.37
74542;BME280;63015;45.378;20.360;2023-09-19T09:25:08;100471.56;;;30.42;35.43
74542;BME280;63015;45.378;20.360;2023-09-19T09:27:12;100461.56;;;30.44;35.00
74542;BME280;63015;45.378;20.360;2023-09-19T09:29:13;100467.88;;;30.22;35.47
74542;BME280;63015;45.378;20.360;2023-09-19T09:31:24;100462.28;;;30.14;35.49
74542;BME280;63015;45.378;20.360;2023-09-19T09:33:25;100461.47;;;30.67;35.42
74542;BME280;63015;45.378;20.360;2023-09-19T09:35:26;100454.13;;;30.90;34.95
74542;BME280;63015;45.378;20.360;2023-09-19T09:37:28;100450.16;;;31.15;34.10
74542;BME280;63015;45.378;20.360;2023-09-19T09:39:30;100447.97;;;31.30;34.27
74542;BME280;63015;45.378;20.360;2023-09-19T09:41:36;100446.97;;;31.31;33.90
74542;BME280;63015;45.378;20.360;2023-09-19T09:43:39;100442.28;;;31.24;34.22
74542;BME280;63015;45.378;20.360;2023-09-19T09:45:40;100445.06;;;31.12;34.69
74542;BME280;63015;45.378;20.360;2023-09-19T09:47:49;100439.75;;;30.80;34.96
74542;BME280;63015;45.378;20.360;2023-09-19T09:49:56;100438.16;;;30.98;34.92
74542;BME280;63015;45.378;20.360;2023-09-19T09:52:07;100437.84;;;30.92;35.16
74542;BME280;63015;45.378;20.360;2023-09-19T09:54:17;100433.75;;;30.97;35.27
74542;BME280;63015;45.378;20.360;2023-09-19T09:56:20;100426.09;;;30.72;35.30
74542;BME280;63015;45.378;20.360;2023-09-19T09:58:21;100425.69;;;31.19;35.16
74542;BME280;63015;45.378;20.360;2023-09-19T10:00:26;100423.53;;;31.22;34.61
74542;BME280;63015;45.378;20.360;2023-09-19T10:02:40;100432.00;;;31.58;34.76
74542;BME280;63015;45.378;20.360;2023-09-19T10:04:41;100423.44;;;31.64;33.93
74542;BME280;63015;45.378;20.360;2023-09-19T10:06:52;100412.50;;;31.66;34.21
74542;BME280;63015;45.378;20.360;2023-09-19T10:11:17;100417.72;;;31.58;33.89
74542;BME280;63015;45.378;20.360;2023-09-19T10:13:20;100418.38;;;32.10;33.66
74542;BME280;63015;45.378;20.360;2023-09-19T10:15:26;100409.88;;;31.86;33.49
74542;BME280;63015;45.378;20.360;2023-09-19T10:17:28;100420.50;;;31.87;33.85
74542;BME280;63015;45.378;20.360;2023-09-19T10:19:37;100417.94;;;31.95;33.76
74542;BME280;63015;45.378;20.360;2023-09-19T10:21:38;100431.16;;;32.38;33.46
74542;BME280;63015;45.378;20.360;2023-09-19T10:23:40;100424.19;;;32.16;32.79
74542;BME280;63015;45.378;20.360;2023-09-19T10:25:45;100420.09;;;31.92;33.06
74542;BME280;63015;45.378;20.360;2023-09-19T10:27:48;100420.78;;;32.13;33.18
74542;BME280;63015;45.378;20.360;2023-09-19T10:29:51;100419.56;;;32.18;33.31
74542;BME280;63015;45.378;20.360;2023-09-19T10:31:57;100421.94;;;32.01;33.80
74542;BME280;63015;45.378;20.360;2023-09-19T10:33:59;100419.66;;;32.16;33.38
74542;BME280;63015;45.378;20.360;2023-09-19T10:36:05;100424.22;;;32.35;33.17
74542;BME280;63015;45.378;20.360;2023-09-19T10:38:06;100432.84;;;32.58;32.62
74542;BME280;63015;45.378;20.360;2023-09-19T10:40:10;100425.56;;;32.69;32.61
74542;BME280;63015;45.378;20.360;2023-09-19T10:42:15;100425.50;;;32.41;33.29
74542;BME280;63015;45.378;20.360;2023-09-19T10:44:25;100430.88;;;32.21;33.46